createdAt,value
2023-03-20T00:00:39.173Z,100704.25
2023-03-20T00:05:40.501Z,100718.94
2023-03-20T00:10:41.768Z,100717.63
2023-03-20T00:15:43.033Z,100716.59
2023-03-20T00:20:44.503Z,100725.22
2023-03-20T00:25:45.895Z,100727.31
2023-03-20T00:30:47.089Z,100735.44
2023-03-20T00:35:48.348Z,100738.56
2023-03-20T00:40:49.624Z,100743.03
2023-03-20T00:45:50.922Z,100736.50
2023-03-20T00:50:52.464Z,100745.66
2023-03-20T00:55:53.672Z,100751.41
2023-03-20T01:00:55.032Z,100756.13
2023-03-20T01:05:57.404Z,100749.06
2023-03-20T01:10:58.603Z,100754.28
2023-03-20T01:15:59.943Z,100752.75
2023-03-20T01:21:01.186Z,100737.56
2023-03-20T01:26:02.900Z,100743.56
2023-03-20T01:31:04.145Z,100743.31
2023-03-20T01:36:05.624Z,100743.56
2023-03-20T01:41:06.922Z,100748.81
2023-03-20T01:46:08.201Z,100740.69
2023-03-20T01:51:09.385Z,100732.06
2023-03-20T01:56:10.577Z,100737.28
2023-03-20T02:01:11.990Z,100731.00
2023-03-20T02:06:13.181Z,100729.44
2023-03-20T02:11:14.362Z,100740.94
2023-03-20T02:16:15.656Z,100732.56
2023-03-20T02:21:17.030Z,100745.91
2023-03-20T02:26:18.350Z,100737.31
2023-03-20T02:31:19.573Z,100745.41
2023-03-20T02:36:22.152Z,100745.41
2023-03-20T02:41:23.539Z,100736.50
2023-03-20T02:46:24.815Z,100729.44
2023-03-20T02:51:26.017Z,100732.84
2023-03-20T02:56:27.146Z,100736.50
2023-03-20T03:01:28.426Z,100733.31
2023-03-20T03:06:29.721Z,100740.66
2023-03-20T03:11:30.936Z,100753.22
2023-03-20T03:16:32.172Z,100748.78
2023-03-20T03:21:33.396Z,100754.53
2023-03-20T03:26:34.652Z,100750.88
2023-03-20T03:31:35.908Z,100774.44
2023-03-20T03:36:37.082Z,100762.94
2023-03-20T03:41:38.226Z,100734.16
2023-03-20T03:46:39.390Z,100721.59
2023-03-20T03:51:40.678Z,100712.41
2023-03-20T03:56:41.885Z,100706.41
2023-03-20T04:01:44.515Z,100722.34
2023-03-20T04:06:45.843Z,100736.72
2023-03-20T04:11:47.044Z,100735.16
2023-03-20T04:16:48.278Z,100754.00
2023-03-20T04:21:49.493Z,100741.44
2023-03-20T04:26:50.704Z,100759.75
2023-03-20T04:31:51.950Z,100760.25
2023-03-20T04:36:53.169Z,100759.47
2023-03-20T04:41:54.339Z,100749.28
2023-03-20T04:46:55.651Z,100738.81
2023-03-20T04:51:56.869Z,100731.19
2023-03-20T04:56:58.031Z,100729.84
2023-03-20T05:01:59.188Z,100725.16
2023-03-20T05:07:00.722Z,100721.72
2023-03-20T05:12:01.890Z,100712.56
2023-03-20T05:17:03.135Z,100716.72
2023-03-20T05:22:04.417Z,100711.22
2023-03-20T05:27:05.851Z,100704.16
2023-03-20T05:32:06.997Z,100706.25
2023-03-20T05:37:08.253Z,100714.84
2023-03-20T05:42:09.479Z,100718.75
2023-03-20T05:47:10.822Z,100738.31
2023-03-20T05:52:12.008Z,100737.50
2023-03-20T05:57:13.283Z,100740.91
2023-03-20T06:02:14.574Z,100740.94
2023-03-20T06:07:16.037Z,100747.47
2023-03-20T06:12:17.214Z,100738.63
2023-03-20T06:17:18.453Z,100744.91
2023-03-20T06:22:19.669Z,100741.53
2023-03-20T06:27:20.906Z,100736.84
2023-03-20T06:32:22.439Z,100743.41
2023-03-20T06:37:23.602Z,100745.78
2023-03-20T06:42:24.797Z,100741.63
2023-03-20T06:47:26.006Z,100739.28
2023-03-20T06:52:27.206Z,100747.13
2023-03-20T06:57:28.390Z,100748.44
2023-03-20T07:02:29.574Z,100757.84
2023-03-20T07:07:30.766Z,100767.31
2023-03-20T07:12:32.014Z,100785.88
2023-03-20T07:17:33.175Z,100797.97
2023-03-20T07:22:34.326Z,100806.84
2023-03-20T07:27:36.064Z,100803.22
2023-03-20T07:32:38.077Z,100800.59
2023-03-20T07:37:40.014Z,100803.25
2023-03-20T07:42:41.735Z,100805.34
2023-03-20T07:47:42.902Z,100812.69
2023-03-20T07:52:44.137Z,100806.66
2023-03-20T07:57:45.407Z,100810.06
2023-03-20T08:02:46.654Z,100819.75
2023-03-20T08:07:47.977Z,100818.44
2023-03-20T08:12:49.406Z,100835.47
2023-03-20T08:17:50.652Z,100833.88
2023-03-20T08:22:52.382Z,100832.03
2023-03-20T08:27:53.584Z,100836.75
2023-03-20T08:32:54.881Z,100842.50
2023-03-20T08:37:56.094Z,100843.31
2023-03-20T08:42:57.365Z,100850.88
2023-03-20T08:47:58.585Z,100854.78
2023-03-20T08:52:59.748Z,100848.22
2023-03-20T08:58:00.971Z,100850.81
2023-03-20T09:03:02.220Z,100844.25
2023-03-20T09:08:03.549Z,100853.72
2023-03-20T09:13:23.476Z,100851.88
2023-03-20T09:18:26.079Z,100850.28
2023-03-20T09:23:27.275Z,100845.28
2023-03-20T09:28:28.545Z,100841.88
2023-03-20T09:33:29.692Z,100847.59
2023-03-20T09:38:30.890Z,100843.44
2023-03-20T09:43:32.975Z,100844.50
2023-03-20T09:48:34.176Z,100842.88
2023-03-20T09:53:35.375Z,100840.72
2023-03-20T09:58:36.544Z,100845.06
2023-03-20T10:03:37.753Z,100840.00
2023-03-20T10:08:39.022Z,100837.03
2023-03-20T10:13:40.249Z,100846.16
2023-03-20T10:18:41.466Z,100837.81
2023-03-20T10:23:42.734Z,100848.09
2023-03-20T10:28:44.023Z,100834.75
2023-03-20T10:33:46.556Z,100839.22
2023-03-20T10:38:47.714Z,100839.00
2023-03-20T10:43:48.888Z,100838.44
2023-03-20T10:48:50.116Z,100835.81
2023-03-20T10:53:51.600Z,100824.19
2023-03-20T10:58:52.729Z,100821.50
2023-03-20T11:03:55.804Z,100822.47
2023-03-20T11:08:58.224Z,100827.75
2023-03-20T11:13:59.387Z,100822.34
2023-03-20T11:19:00.534Z,100817.28
2023-03-20T11:24:01.701Z,100814.16
2023-03-20T11:29:02.868Z,100811.50
2023-03-20T11:34:04.030Z,100806.09
2023-03-20T11:39:05.285Z,100797.44
2023-03-20T11:44:06.966Z,100785.13
2023-03-20T11:49:08.210Z,100788.47
2023-03-20T11:54:09.408Z,100788.03
2023-03-20T11:59:11.806Z,100780.59
2023-03-20T12:04:13.493Z,100791.09
2023-03-20T12:09:14.651Z,100786.44
2023-03-20T12:14:15.823Z,100787.03
2023-03-20T12:19:18.064Z,100788.03
2023-03-20T12:24:19.242Z,100784.81
2023-03-20T12:29:21.315Z,100780.38
2023-03-20T12:34:22.852Z,100771.19
2023-03-20T12:39:24.209Z,100769.38
2023-03-20T12:44:25.586Z,100772.81
2023-03-20T12:49:26.722Z,100758.69
2023-03-20T12:54:27.857Z,100772.50
2023-03-20T12:59:29.077Z,100761.03
2023-03-20T13:04:30.526Z,100765.75
2023-03-20T13:09:31.777Z,100752.56
2023-03-20T13:14:32.906Z,100742.72
2023-03-20T13:19:34.107Z,100753.34
2023-03-20T13:24:35.479Z,100748.56
2023-03-20T13:29:36.673Z,100734.84
2023-03-20T13:34:37.843Z,100738.97
2023-03-20T13:39:39.403Z,100728.78
2023-03-20T13:44:40.545Z,100724.03
2023-03-20T13:49:41.726Z,100727.47
2023-03-20T13:54:43.032Z,100711.22
2023-03-20T13:59:44.252Z,100711.81
2023-03-20T14:04:45.747Z,100692.34
2023-03-20T14:09:46.928Z,100696.72
2023-03-20T14:14:48.164Z,100698.88
2023-03-20T14:19:50.387Z,100706.84
2023-03-20T14:24:51.636Z,100711.09
2023-03-20T14:29:52.853Z,100699.97
2023-03-20T14:34:54.056Z,100698.00
2023-03-20T14:39:55.316Z,100698.13
2023-03-20T14:44:56.524Z,100706.59
2023-03-20T14:49:57.685Z,100691.31
2023-03-20T14:54:58.822Z,100682.22
2023-03-20T14:59:59.965Z,100672.41
2023-03-20T15:05:01.227Z,100667.19
2023-03-20T15:10:03.072Z,100666.38
2023-03-20T15:15:04.304Z,100671.06
2023-03-20T15:20:06.462Z,100672.72
2023-03-20T15:25:08.178Z,100666.75
2023-03-20T15:30:09.360Z,100667.41
2023-03-20T15:35:10.536Z,100659.78
2023-03-20T15:40:11.718Z,100651.84
2023-03-20T15:45:12.904Z,100646.81
2023-03-20T15:50:15.685Z,100636.44
2023-03-20T15:55:16.891Z,100640.19
2023-03-20T16:00:18.086Z,100628.47
2023-03-20T16:05:19.389Z,100631.81
2023-03-20T16:10:20.620Z,100629.81
2023-03-20T16:15:22.015Z,100639.06
2023-03-20T16:20:23.200Z,100630.22
2023-03-20T16:25:24.417Z,100618.19
2023-03-20T16:30:26.394Z,100615.56
2023-03-20T16:35:27.849Z,100609.13
2023-03-20T16:40:31.873Z,100601.31
2023-03-20T16:45:33.116Z,100604.16
2023-03-20T16:50:34.615Z,100607.91
2023-03-20T16:55:35.961Z,100610.13
2023-03-20T17:00:37.486Z,100608.72
2023-03-20T17:05:38.850Z,100616.09
2023-03-20T17:10:40.333Z,100605.81
2023-03-20T17:15:42.066Z,100600.34
2023-03-20T17:20:43.365Z,100614.28
2023-03-20T17:25:44.644Z,100614.63
2023-03-20T17:30:45.994Z,100604.66
2023-03-20T17:35:47.759Z,100616.22
2023-03-20T17:40:49.028Z,100617.31
2023-03-20T17:45:50.237Z,100636.50
2023-03-20T17:50:51.522Z,100640.50
2023-03-20T17:55:52.820Z,100646.84
2023-03-20T18:00:55.305Z,100650.31
2023-03-20T18:05:56.615Z,100644.63
2023-03-20T18:10:57.785Z,100637.53
2023-03-20T18:15:59.252Z,100639.59
2023-03-20T18:21:00.469Z,100649.03
2023-03-20T18:26:01.765Z,100641.94
2023-03-20T18:31:02.978Z,100649.59
2023-03-20T18:36:04.287Z,100648.25
2023-03-20T18:41:05.587Z,100646.66
2023-03-20T18:46:06.837Z,100633.31
2023-03-20T18:51:08.021Z,100628.59
2023-03-20T18:56:09.219Z,100623.34
2023-03-20T19:01:13.642Z,100629.66
2023-03-20T19:06:15.066Z,100625.47
2023-03-20T19:11:18.927Z,100627.06
2023-03-20T19:16:21.908Z,100637.06
2023-03-20T19:21:26.425Z,100634.72
2023-03-20T19:26:27.774Z,100634.72
2023-03-20T19:31:29.105Z,100634.72
2023-03-20T19:36:30.567Z,100634.75
2023-03-20T19:41:32.830Z,100626.38
2023-03-20T19:46:42.160Z,100632.13
2023-03-20T19:51:43.839Z,100618.75
2023-03-20T19:56:45.101Z,100616.94
2023-03-20T20:01:46.780Z,100613.56
2023-03-20T20:06:48.782Z,100606.25
2023-03-20T20:11:50.009Z,100608.66
2023-03-20T20:16:55.264Z,100609.91
2023-03-20T20:27:18.934Z,100609.41
2023-03-20T20:32:20.711Z,100608.13
2023-03-20T20:38:19.775Z,100607.59
2023-03-20T20:42:43.333Z,100602.38
2023-03-20T20:47:47.661Z,100602.66
2023-03-20T20:52:49.284Z,100595.84
2023-03-20T20:57:50.693Z,100597.41
2023-03-20T21:02:52.334Z,100597.13
2023-03-20T21:07:54.425Z,100597.38
2023-03-20T21:12:59.516Z,100598.16
2023-03-20T21:18:02.022Z,100595.31
2023-03-20T21:23:03.258Z,100597.13
2023-03-20T21:28:04.466Z,100602.38
2023-03-20T21:33:05.763Z,100559.34
2023-03-20T21:38:55.425Z,100602.66
2023-03-20T21:43:28.448Z,100601.09
2023-03-20T21:49:12.465Z,100602.13
2023-03-20T21:54:51.304Z,100596.88
2023-03-20T21:59:48.440Z,100593.50
2023-03-20T22:15:54.289Z,100601.13
2023-03-20T22:26:58.253Z,100598.00
2023-03-20T22:47:22.704Z,100604.56
2023-03-20T22:52:37.879Z,100596.97
2023-03-20T22:57:47.586Z,100595.41
2023-03-20T23:02:57.367Z,100590.94
2023-03-20T23:08:04.568Z,100586.25
2023-03-20T23:13:05.860Z,100587.00
2023-03-20T23:18:07.080Z,100579.44
2023-03-20T23:23:08.305Z,100572.38
2023-03-20T23:28:09.521Z,100574.19
2023-03-20T23:33:10.734Z,100573.41
2023-03-20T23:38:11.903Z,100572.63
2023-03-20T23:43:13.523Z,100565.03
2023-03-20T23:48:14.747Z,100565.53
2023-03-20T23:53:20.633Z,100558.19
2023-03-20T23:58:22.471Z,100552.94
